sensor_id;sensor_type;location;lat;lon;timestamp;temperature;humidity
13464;DHT22;6804;48.774;9.174;2023-05-19T00:02:27;15.00;95.70
13464;DHT22;6804;48.774;9.174;2023-05-19T00:05:00;15.00;95.60
13464;DHT22;6804;48.774;9.174;2023-05-19T00:07:30;15.00;95.60
13464;DHT22;6804;48.774;9.174;2023-05-19T00:09:58;14.90;95.70
13464;DHT22;6804;48.774;9.174;2023-05-19T00:12:28;14.90;95.90
13464;DHT22;6804;48.774;9.174;2023-05-19T00:14:56;14.70;95.80
13464;DHT22;6804;48.774;9.174;2023-05-19T00:17:27;14.40;96.40
13464;DHT22;6804;48.774;9.174;2023-05-19T00:19:54;14.20;96.80
13464;DHT22;6804;48.774;9.174;2023-05-19T00:22:23;14.00;97.10
13464;DHT22;6804;48.774;9.174;2023-05-19T00:24:53;13.90;97.30
13464;DHT22;6804;48.774;9.174;2023-05-19T00:27:23;14.00;97.30
13464;DHT22;6804;48.774;9.174;2023-05-19T00:29:50;14.00;97.40
13464;DHT22;6804;48.774;9.174;2023-05-19T00:32:17;14.10;97.20
13464;DHT22;6804;48.774;9.174;2023-05-19T00:34:46;14.10;97.40
13464;DHT22;6804;48.774;9.174;2023-05-19T00:37:19;14.20;97.50
13464;DHT22;6804;48.774;9.174;2023-05-19T00:39:49;14.20;97.20
13464;DHT22;6804;48.774;9.174;2023-05-19T00:42:16;14.30;97.10
13464;DHT22;6804;48.774;9.174;2023-05-19T00:44:53;14.30;97.10
13464;DHT22;6804;48.774;9.174;2023-05-19T00:47:21;14.30;97.00
13464;DHT22;6804;48.774;9.174;2023-05-19T00:49:51;14.40;97.00
13464;DHT22;6804;48.774;9.174;2023-05-19T00:52:20;14.40;96.90
13464;DHT22;6804;48.774;9.174;2023-05-19T00:54:50;14.40;96.60
13464;DHT22;6804;48.774;9.174;2023-05-19T00:57:18;14.30;97.00
13464;DHT22;6804;48.774;9.174;2023-05-19T00:59:45;14.30;97.40
13464;DHT22;6804;48.774;9.174;2023-05-19T01:02:13;14.30;97.30
13464;DHT22;6804;48.774;9.174;2023-05-19T01:04:44;14.40;97.30
13464;DHT22;6804;48.774;9.174;2023-05-19T01:07:11;14.40;97.10
13464;DHT22;6804;48.774;9.174;2023-05-19T01:09:38;14.40;96.70
13464;DHT22;6804;48.774;9.174;2023-05-19T01:12:10;14.30;96.60
13464;DHT22;6804;48.774;9.174;2023-05-19T01:14:37;14.00;97.30
13464;DHT22;6804;48.774;9.174;2023-05-19T01:17:08;13.80;98.10
13464;DHT22;6804;48.774;9.174;2023-05-19T01:19:52;13.70;98.00
13464;DHT22;6804;48.774;9.174;2023-05-19T01:23:01;13.80;98.20
13464;DHT22;6804;48.774;9.174;2023-05-19T01:29:24;14.00;97.90
13464;DHT22;6804;48.774;9.174;2023-05-19T01:31:58;14.00;97.70
13464;DHT22;6804;48.774;9.174;2023-05-19T01:34:30;14.10;97.80
13464;DHT22;6804;48.774;9.174;2023-05-19T01:37:00;13.90;98.00
13464;DHT22;6804;48.774;9.174;2023-05-19T01:39:27;13.80;98.10
13464;DHT22;6804;48.774;9.174;2023-05-19T01:42:00;13.80;98.60
13464;DHT22;6804;48.774;9.174;2023-05-19T01:44:28;13.70;98.50
13464;DHT22;6804;48.774;9.174;2023-05-19T01:46:57;13.70;98.70
13464;DHT22;6804;48.774;9.174;2023-05-19T01:49:24;13.80;98.70
13464;DHT22;6804;48.774;9.174;2023-05-19T01:51:53;13.80;98.20
13464;DHT22;6804;48.774;9.174;2023-05-19T01:54:20;13.70;98.60
13464;DHT22;6804;48.774;9.174;2023-05-19T01:56:56;13.70;98.60
13464;DHT22;6804;48.774;9.174;2023-05-19T01:59:34;13.80;98.80
13464;DHT22;6804;48.774;9.174;2023-05-19T02:02:09;13.80;98.80
13464;DHT22;6804;48.774;9.174;2023-05-19T02:04:53;13.90;99.20
13464;DHT22;6804;48.774;9.174;2023-05-19T02:07:34;13.90;98.90
13464;DHT22;6804;48.774;9.174;2023-05-19T02:10:10;14.00;98.90
13464;DHT22;6804;48.774;9.174;2023-05-19T02:12:38;14.00;98.80
13464;DHT22;6804;48.774;9.174;2023-05-19T02:15:09;14.10;98.80
13464;DHT22;6804;48.774;9.174;2023-05-19T02:17:40;14.10;98.70
13464;DHT22;6804;48.774;9.174;2023-05-19T02:20:12;14.10;98.60
13464;DHT22;6804;48.774;9.174;2023-05-19T02:22:42;14.10;98.70
13464;DHT22;6804;48.774;9.174;2023-05-19T02:25:09;14.10;98.70
13464;DHT22;6804;48.774;9.174;2023-05-19T02:27:40;14.20;98.70
13464;DHT22;6804;48.774;9.174;2023-05-19T02:30:10;14.20;98.70
13464;DHT22;6804;48.774;9.174;2023-05-19T02:32:42;14.20;98.60
13464;DHT22;6804;48.774;9.174;2023-05-19T02:35:11;14.20;98.60
13464;DHT22;6804;48.774;9.174;2023-05-19T02:37:38;14.20;98.60
13464;DHT22;6804;48.774;9.174;2023-05-19T02:40:07;14.30;98.60
13464;DHT22;6804;48.774;9.174;2023-05-19T02:42:34;14.30;98.90
13464;DHT22;6804;48.774;9.174;2023-05-19T02:45:01;14.30;98.50
13464;DHT22;6804;48.774;9.174;2023-05-19T02:47:29;14.20;98.50
13464;DHT22;6804;48.774;9.174;2023-05-19T02:49:58;14.20;98.60
13464;DHT22;6804;48.774;9.174;2023-05-19T02:52:25;14.10;98.70
13464;DHT22;6804;48.774;9.174;2023-05-19T02:54:52;14.10;98.80
13464;DHT22;6804;48.774;9.174;2023-05-19T02:57:22;14.10;98.80
13464;DHT22;6804;48.774;9.174;2023-05-19T02:59:49;14.10;98.90
13464;DHT22;6804;48.774;9.174;2023-05-19T03:02:17;13.90;99.10
13464;DHT22;6804;48.774;9.174;2023-05-19T03:04:47;13.70;99.60
13464;DHT22;6804;48.774;9.174;2023-05-19T03:07:16;13.60;99.90
13464;DHT22;6804;48.774;9.174;2023-05-19T03:09:52;13.50;99.90
13464;DHT22;6804;48.774;9.174;2023-05-19T03:12:22;13.40;99.90
13464;DHT22;6804;48.774;9.174;2023-05-19T03:14:49;13.30;99.90
13464;DHT22;6804;48.774;9.174;2023-05-19T03:17:16;13.00;99.90
13464;DHT22;6804;48.774;9.174;2023-05-19T03:19:53;13.00;99.90
13464;DHT22;6804;48.774;9.174;2023-05-19T03:22:22;12.90;99.90
13464;DHT22;6804;48.774;9.174;2023-05-19T03:24:49;12.90;99.90
13464;DHT22;6804;48.774;9.174;2023-05-19T03:27:18;12.80;99.90
13464;DHT22;6804;48.774;9.174;2023-05-19T03:29:48;12.70;99.90
13464;DHT22;6804;48.774;9.174;2023-05-19T03:32:17;12.70;99.90
13464;DHT22;6804;48.774;9.174;2023-05-19T03:34:46;12.80;99.90
13464;DHT22;6804;48.774;9.174;2023-05-19T03:37:14;12.90;99.90
13464;DHT22;6804;48.774;9.174;2023-05-19T03:39:42;13.00;99.90
13464;DHT22;6804;48.774;9.174;2023-05-19T03:42:10;13.00;99.90
13464;DHT22;6804;48.774;9.174;2023-05-19T03:44:37;13.00;99.90
13464;DHT22;6804;48.774;9.174;2023-05-19T03:47:05;12.90;99.90
13464;DHT22;6804;48.774;9.174;2023-05-19T03:49:32;12.80;99.90
13464;DHT22;6804;48.774;9.174;2023-05-19T03:51:59;12.80;99.90
13464;DHT22;6804;48.774;9.174;2023-05-19T03:54:28;12.80;99.90
13464;DHT22;6804;48.774;9.174;2023-05-19T03:56:56;12.90;99.90
13464;DHT22;6804;48.774;9.174;2023-05-19T03:59:23;13.00;99.90
13464;DHT22;6804;48.774;9.174;2023-05-19T04:01:51;13.00;99.90
13464;DHT22;6804;48.774;9.174;2023-05-19T04:04:18;13.00;99.90
13464;DHT22;6804;48.774;9.174;2023-05-19T04:06:47;13.20;99.90
13464;DHT22;6804;48.774;9.174;2023-05-19T04:09:17;13.20;99.90
13464;DHT22;6804;48.774;9.174;2023-05-19T04:11:44;13.30;99.90
13464;DHT22;6804;48.774;9.174;2023-05-19T04:14:15;13.40;99.90
13464;DHT22;6804;48.774;9.174;2023-05-19T04:16:44;13.50;99.90
13464;DHT22;6804;48.774;9.174;2023-05-19T04:19:14;13.50;99.90
13464;DHT22;6804;48.774;9.174;2023-05-19T04:21:41;13.50;99.90
13464;DHT22;6804;48.774;9.174;2023-05-19T04:24:09;13.60;99.90
13464;DHT22;6804;48.774;9.174;2023-05-19T04:26:38;13.60;99.90
13464;DHT22;6804;48.774;9.174;2023-05-19T04:29:11;13.60;99.90
13464;DHT22;6804;48.774;9.174;2023-05-19T04:31:44;13.60;99.90
13464;DHT22;6804;48.774;9.174;2023-05-19T04:34:14;13.60;99.90
13464;DHT22;6804;48.774;9.174;2023-05-19T04:36:44;13.60;99.90
13464;DHT22;6804;48.774;9.174;2023-05-19T04:39:12;13.60;99.90
13464;DHT22;6804;48.774;9.174;2023-05-19T04:41:42;13.70;99.90
13464;DHT22;6804;48.774;9.174;2023-05-19T04:44:13;13.60;99.90
13464;DHT22;6804;48.774;9.174;2023-05-19T04:46:46;13.60;99.90
13464;DHT22;6804;48.774;9.174;2023-05-19T04:49:14;13.60;99.90
13464;DHT22;6804;48.774;9.174;2023-05-19T04:51:46;13.50;99.90
13464;DHT22;6804;48.774;9.174;2023-05-19T04:54:14;13.50;99.90
13464;DHT22;6804;48.774;9.174;2023-05-19T04:56:44;13.50;99.90
13464;DHT22;6804;48.774;9.174;2023-05-19T04:59:14;13.50;99.90
13464;DHT22;6804;48.774;9.174;2023-05-19T05:01:43;13.50;99.90
13464;DHT22;6804;48.774;9.174;2023-05-19T05:04:11;13.50;99.90
13464;DHT22;6804;48.774;9.174;2023-05-19T05:06:38;13.60;99.90
13464;DHT22;6804;48.774;9.174;2023-05-19T05:09:12;13.70;99.90
13464;DHT22;6804;48.774;9.174;2023-05-19T05:11:44;13.70;99.90
13464;DHT22;6804;48.774;9.174;2023-05-19T05:14:18;13.70;99.90
13464;DHT22;6804;48.774;9.174;2023-05-19T05:16:48;13.80;99.90
13464;DHT22;6804;48.774;9.174;2023-05-19T05:19:18;13.90;99.90
13464;DHT22;6804;48.774;9.174;2023-05-19T05:21:47;13.90;99.90
13464;DHT22;6804;48.774;9.174;2023-05-19T05:24:15;13.70;99.90
13464;DHT22;6804;48.774;9.174;2023-05-19T05:26:46;13.50;99.90
13464;DHT22;6804;48.774;9.174;2023-05-19T05:29:13;13.30;99.90
13464;DHT22;6804;48.774;9.174;2023-05-19T05:31:40;13.20;99.90
13464;DHT22;6804;48.774;9.174;2023-05-19T05:34:13;13.30;99.90
13464;DHT22;6804;48.774;9.174;2023-05-19T05:36:40;13.40;99.90
13464;DHT22;6804;48.774;9.174;2023-05-19T05:39:08;13.60;99.90
13464;DHT22;6804;48.774;9.174;2023-05-19T05:41:38;13.50;99.90
13464;DHT22;6804;48.774;9.174;2023-05-19T05:44:07;13.40;99.90
13464;DHT22;6804;48.774;9.174;2023-05-19T05:46:35;13.20;99.90
13464;DHT22;6804;48.774;9.174;2023-05-19T05:49:04;13.20;99.90
13464;DHT22;6804;48.774;9.174;2023-05-19T05:51:36;13.30;99.90
13464;DHT22;6804;48.774;9.174;2023-05-19T05:54:06;13.40;99.90
13464;DHT22;6804;48.774;9.174;2023-05-19T05:56:36;13.30;99.90
13464;DHT22;6804;48.774;9.174;2023-05-19T05:59:06;13.30;99.90
13464;DHT22;6804;48.774;9.174;2023-05-19T06:01:33;13.10;99.90
13464;DHT22;6804;48.774;9.174;2023-05-19T06:04:01;13.20;99.90
13464;DHT22;6804;48.774;9.174;2023-05-19T06:06:31;13.30;99.90
13464;DHT22;6804;48.774;9.174;2023-05-19T06:09:00;13.60;99.90
13464;DHT22;6804;48.774;9.174;2023-05-19T06:11:27;13.80;99.90
13464;DHT22;6804;48.774;9.174;2023-05-19T06:13:57;13.90;99.90
13464;DHT22;6804;48.774;9.174;2023-05-19T06:16:26;14.00;99.90
13464;DHT22;6804;48.774;9.174;2023-05-19T06:18:54;13.90;99.90
13464;DHT22;6804;48.774;9.174;2023-05-19T06:21:24;13.90;99.90
13464;DHT22;6804;48.774;9.174;2023-05-19T06:23:52;14.20;99.90
13464;DHT22;6804;48.774;9.174;2023-05-19T06:26:24;14.50;99.90
13464;DHT22;6804;48.774;9.174;2023-05-19T06:28:51;14.70;99.90
13464;DHT22;6804;48.774;9.174;2023-05-19T06:31:19;14.90;99.90
13464;DHT22;6804;48.774;9.174;2023-05-19T06:33:49;15.10;99.90
13464;DHT22;6804;48.774;9.174;2023-05-19T06:36:17;15.40;99.90
13464;DHT22;6804;48.774;9.174;2023-05-19T06:38:46;15.50;99.90
13464;DHT22;6804;48.774;9.174;2023-05-19T06:41:20;15.60;99.90
13464;DHT22;6804;48.774;9.174;2023-05-19T06:43:49;15.70;99.90
13464;DHT22;6804;48.774;9.174;2023-05-19T06:46:16;15.60;99.90
13464;DHT22;6804;48.774;9.174;2023-05-19T06:48:44;15.60;99.90
13464;DHT22;6804;48.774;9.174;2023-05-19T06:51:16;15.50;99.90
13464;DHT22;6804;48.774;9.174;2023-05-19T06:53:49;15.40;99.90
13464;DHT22;6804;48.774;9.174;2023-05-19T06:56:17;15.30;99.90
13464;DHT22;6804;48.774;9.174;2023-05-19T06:58:44;15.40;99.90
13464;DHT22;6804;48.774;9.174;2023-05-19T07:01:13;15.50;99.90
13464;DHT22;6804;48.774;9.174;2023-05-19T07:03:43;15.50;99.90
13464;DHT22;6804;48.774;9.174;2023-05-19T07:06:11;15.50;99.90
13464;DHT22;6804;48.774;9.174;2023-05-19T07:08:38;15.60;99.90
13464;DHT22;6804;48.774;9.174;2023-05-19T07:11:09;15.70;99.90
13464;DHT22;6804;48.774;9.174;2023-05-19T07:13:37;15.70;99.90
13464;DHT22;6804;48.774;9.174;2023-05-19T07:16:07;15.70;99.90
13464;DHT22;6804;48.774;9.174;2023-05-19T07:18:37;15.70;99.90
13464;DHT22;6804;48.774;9.174;2023-05-19T07:21:10;15.50;99.90
13464;DHT22;6804;48.774;9.174;2023-05-19T07:23:37;15.50;99.90
13464;DHT22;6804;48.774;9.174;2023-05-19T07:26:08;15.40;99.90
13464;DHT22;6804;48.774;9.174;2023-05-19T07:28:35;15.40;99.90
13464;DHT22;6804;48.774;9.174;2023-05-19T07:31:10;15.40;99.90
13464;DHT22;6804;48.774;9.174;2023-05-19T07:33:40;15.10;99.90
13464;DHT22;6804;48.774;9.174;2023-05-19T07:36:10;15.10;99.90
13464;DHT22;6804;48.774;9.174;2023-05-19T07:38:38;14.80;99.90
13464;DHT22;6804;48.774;9.174;2023-05-19T07:41:08;14.80;99.90
13464;DHT22;6804;48.774;9.174;2023-05-19T07:43:38;15.00;99.90
13464;DHT22;6804;48.774;9.174;2023-05-19T07:46:09;15.00;99.90
13464;DHT22;6804;48.774;9.174;2023-05-19T07:48:37;14.80;99.90
13464;DHT22;6804;48.774;9.174;2023-05-19T07:51:11;14.90;99.90
13464;DHT22;6804;48.774;9.174;2023-05-19T07:53:42;15.10;99.90
13464;DHT22;6804;48.774;9.174;2023-05-19T07:56:09;15.20;99.90
13464;DHT22;6804;48.774;9.174;2023-05-19T07:58:37;15.20;99.90
13464;DHT22;6804;48.774;9.174;2023-05-19T08:01:09;15.20;99.90
13464;DHT22;6804;48.774;9.174;2023-05-19T08:03:39;15.20;99.90
13464;DHT22;6804;48.774;9.174;2023-05-19T08:06:08;15.30;99.90
13464;DHT22;6804;48.774;9.174;2023-05-19T08:08:36;15.40;99.90
13464;DHT22;6804;48.774;9.174;2023-05-19T08:11:04;15.20;99.90
13464;DHT22;6804;48.774;9.174;2023-05-19T08:13:32;15.00;99.90
13464;DHT22;6804;48.774;9.174;2023-05-19T08:16:00;14.70;99.90
13464;DHT22;6804;48.774;9.174;2023-05-19T08:18:27;14.70;99.90
13464;DHT22;6804;48.774;9.174;2023-05-19T08:21:01;14.70;99.90
13464;DHT22;6804;48.774;9.174;2023-05-19T08:23:30;14.70;99.90
13464;DHT22;6804;48.774;9.174;2023-05-19T08:25:58;14.50;99.90
13464;DHT22;6804;48.774;9.174;2023-05-19T08:28:27;14.60;99.90
13464;DHT22;6804;48.774;9.174;2023-05-19T08:30:54;14.60;99.90
13464;DHT22;6804;48.774;9.174;2023-05-19T08:33:22;14.60;99.90
13464;DHT22;6804;48.774;9.174;2023-05-19T08:35:50;14.40;99.90
13464;DHT22;6804;48.774;9.174;2023-05-19T08:38:20;14.40;99.90
13464;DHT22;6804;48.774;9.174;2023-05-19T08:40:52;14.50;99.90
13464;DHT22;6804;48.774;9.174;2023-05-19T08:43:22;14.60;99.90
13464;DHT22;6804;48.774;9.174;2023-05-19T08:45:52;14.60;99.90
13464;DHT22;6804;48.774;9.174;2023-05-19T08:48:21;14.50;99.90
13464;DHT22;6804;48.774;9.174;2023-05-19T08:50:56;14.50;99.90
13464;DHT22;6804;48.774;9.174;2023-05-19T08:53:33;14.70;99.90
13464;DHT22;6804;48.774;9.174;2023-05-19T08:56:09;14.70;99.90
13464;DHT22;6804;48.774;9.174;2023-05-19T08:58:38;14.70;99.90
13464;DHT22;6804;48.774;9.174;2023-05-19T09:01:13;14.70;99.90
13464;DHT22;6804;48.774;9.174;2023-05-19T09:03:42;14.70;99.90
13464;DHT22;6804;48.774;9.174;2023-05-19T09:06:13;14.60;99.90
13464;DHT22;6804;48.774;9.174;2023-05-19T09:08:44;14.70;99.90
13464;DHT22;6804;48.774;9.174;2023-05-19T09:11:13;14.90;99.90
13464;DHT22;6804;48.774;9.174;2023-05-19T09:13:40;15.20;99.90
13464;DHT22;6804;48.774;9.174;2023-05-19T09:16:10;15.30;99.90
13464;DHT22;6804;48.774;9.174;2023-05-19T09:18:53;15.50;99.90
13464;DHT22;6804;48.774;9.174;2023-05-19T09:21:26;15.60;99.90
13464;DHT22;6804;48.774;9.174;2023-05-19T09:23:56;15.70;99.90
13464;DHT22;6804;48.774;9.174;2023-05-19T09:26:36;15.80;99.90
13464;DHT22;6804;48.774;9.174;2023-05-19T09:29:11;15.70;99.90
13464;DHT22;6804;48.774;9.174;2023-05-19T09:31:42;15.60;99.90
13464;DHT22;6804;48.774;9.174;2023-05-19T09:34:14;15.70;99.90
13464;DHT22;6804;48.774;9.174;2023-05-19T09:36:42;15.60;99.90
13464;DHT22;6804;48.774;9.174;2023-05-19T09:39:15;15.60;99.90
13464;DHT22;6804;48.774;9.174;2023-05-19T09:41:44;15.60;99.90
13464;DHT22;6804;48.774;9.174;2023-05-19T09:44:12;15.60;99.90
13464;DHT22;6804;48.774;9.174;2023-05-19T09:46:47;15.70;99.90
13464;DHT22;6804;48.774;9.174;2023-05-19T09:49:25;15.70;99.90
13464;DHT22;6804;48.774;9.174;2023-05-19T09:51:54;15.70;99.90
13464;DHT22;6804;48.774;9.174;2023-05-19T09:54:23;15.80;99.90
13464;DHT22;6804;48.774;9.174;2023-05-19T09:56:57;15.90;99.90
13464;DHT22;6804;48.774;9.174;2023-05-19T09:59:29;15.70;99.90
13464;DHT22;6804;48.774;9.174;2023-05-19T10:02:03;15.80;99.90
13464;DHT22;6804;48.774;9.174;2023-05-19T10:04:31;16.00;99.90
13464;DHT22;6804;48.774;9.174;2023-05-19T10:07:01;16.10;99.90
13464;DHT22;6804;48.774;9.174;2023-05-19T10:09:35;16.00;99.90
13464;DHT22;6804;48.774;9.174;2023-05-19T10:12:04;16.00;99.90
13464;DHT22;6804;48.774;9.174;2023-05-19T10:14:35;16.10;99.90
13464;DHT22;6804;48.774;9.174;2023-05-19T10:17:03;16.10;99.90
13464;DHT22;6804;48.774;9.174;2023-05-19T10:19:31;16.00;99.90
13464;DHT22;6804;48.774;9.174;2023-05-19T10:21:59;15.60;99.90
13464;DHT22;6804;48.774;9.174;2023-05-19T10:24:27;15.40;99.90
13464;DHT22;6804;48.774;9.174;2023-05-19T10:26:59;15.50;99.90
13464;DHT22;6804;48.774;9.174;2023-05-19T10:29:33;15.50;99.90
13464;DHT22;6804;48.774;9.174;2023-05-19T10:32:07;15.40;99.90
13464;DHT22;6804;48.774;9.174;2023-05-19T10:34:57;15.40;99.90
13464;DHT22;6804;48.774;9.174;2023-05-19T10:37:36;15.50;99.90
13464;DHT22;6804;48.774;9.174;2023-05-19T10:40:16;15.60;99.90
13464;DHT22;6804;48.774;9.174;2023-05-19T10:42:56;15.70;99.90
13464;DHT22;6804;48.774;9.174;2023-05-19T10:45:33;15.90;99.90
13464;DHT22;6804;48.774;9.174;2023-05-19T10:48:03;16.00;99.90
13464;DHT22;6804;48.774;9.174;2023-05-19T10:50:35;16.00;99.90
13464;DHT22;6804;48.774;9.174;2023-05-19T10:53:03;16.00;99.90
13464;DHT22;6804;48.774;9.174;2023-05-19T10:55:49;16.00;99.90
13464;DHT22;6804;48.774;9.174;2023-05-19T10:58:38;15.70;99.90
13464;DHT22;6804;48.774;9.174;2023-05-19T11:01:08;15.70;99.90
13464;DHT22;6804;48.774;9.174;2023-05-19T11:03:46;15.80;99.90
13464;DHT22;6804;48.774;9.174;2023-05-19T11:06:25;15.90;99.90
13464;DHT22;6804;48.774;9.174;2023-05-19T11:08:55;15.90;99.90
13464;DHT22;6804;48.774;9.174;2023-05-19T11:11:42;16.00;99.90
13464;DHT22;6804;48.774;9.174;2023-05-19T11:14:11;16.10;99.90
13464;DHT22;6804;48.774;9.174;2023-05-19T11:16:46;16.00;99.90
13464;DHT22;6804;48.774;9.174;2023-05-19T11:19:17;15.80;99.90
13464;DHT22;6804;48.774;9.174;2023-05-19T11:21:49;15.50;99.90
13464;DHT22;6804;48.774;9.174;2023-05-19T11:24:36;15.40;99.90
13464;DHT22;6804;48.774;9.174;2023-05-19T11:27:19;15.50;99.90
13464;DHT22;6804;48.774;9.174;2023-05-19T11:29:47;15.70;99.90
13464;DHT22;6804;48.774;9.174;2023-05-19T11:32:19;15.70;99.90
13464;DHT22;6804;48.774;9.174;2023-05-19T11:34:48;15.80;99.90
13464;DHT22;6804;48.774;9.174;2023-05-19T11:37:16;15.90;99.90
13464;DHT22;6804;48.774;9.174;2023-05-19T11:39:45;15.80;99.90
13464;DHT22;6804;48.774;9.174;2023-05-19T11:42:13;15.40;99.90
13464;DHT22;6804;48.774;9.174;2023-05-19T11:44:48;15.30;99.90
13464;DHT22;6804;48.774;9.174;2023-05-19T11:47:17;15.40;99.90
13464;DHT22;6804;48.774;9.174;2023-05-19T11:49:50;15.50;99.90
13464;DHT22;6804;48.774;9.174;2023-05-19T11:52:21;15.50;99.90
13464;DHT22;6804;48.774;9.174;2023-05-19T11:54:48;15.50;99.90
13464;DHT22;6804;48.774;9.174;2023-05-19T11:57:16;15.60;99.90
13464;DHT22;6804;48.774;9.174;2023-05-19T11:59:46;15.70;99.90
13464;DHT22;6804;48.774;9.174;2023-05-19T12:02:20;15.70;99.90
13464;DHT22;6804;48.774;9.174;2023-05-19T12:04:50;15.70;99.90
13464;DHT22;6804;48.774;9.174;2023-05-19T12:07:18;15.70;99.90
13464;DHT22;6804;48.774;9.174;2023-05-19T12:09:48;15.60;99.90
13464;DHT22;6804;48.774;9.174;2023-05-19T12:12:17;15.50;99.90
13464;DHT22;6804;48.774;9.174;2023-05-19T12:14:47;15.60;99.90
13464;DHT22;6804;48.774;9.174;2023-05-19T12:17:18;15.70;99.90
13464;DHT22;6804;48.774;9.174;2023-05-19T12:19:47;15.80;99.90
13464;DHT22;6804;48.774;9.174;2023-05-19T12:22:18;15.90;99.90
13464;DHT22;6804;48.774;9.174;2023-05-19T12:24:46;15.70;99.90
13464;DHT22;6804;48.774;9.174;2023-05-19T12:27:17;15.40;99.90
13464;DHT22;6804;48.774;9.174;2023-05-19T12:29:49;15.40;99.90
13464;DHT22;6804;48.774;9.174;2023-05-19T12:32:22;15.30;99.90
13464;DHT22;6804;48.774;9.174;2023-05-19T12:34:50;15.10;99.90
13464;DHT22;6804;48.774;9.174;2023-05-19T12:37:18;15.10;99.90
13464;DHT22;6804;48.774;9.174;2023-05-19T12:39:47;15.20;99.90
13464;DHT22;6804;48.774;9.174;2023-05-19T12:42:17;15.20;99.90
13464;DHT22;6804;48.774;9.174;2023-05-19T12:44:50;15.40;99.90
13464;DHT22;6804;48.774;9.174;2023-05-19T12:47:19;15.50;99.90
13464;DHT22;6804;48.774;9.174;2023-05-19T12:49:53;15.60;99.90
13464;DHT22;6804;48.774;9.174;2023-05-19T12:52:21;15.60;99.90
13464;DHT22;6804;48.774;9.174;2023-05-19T12:54:49;15.50;99.90
13464;DHT22;6804;48.774;9.174;2023-05-19T12:57:19;15.50;99.90
13464;DHT22;6804;48.774;9.174;2023-05-19T12:59:51;15.50;99.90
13464;DHT22;6804;48.774;9.174;2023-05-19T13:02:20;15.50;99.90
13464;DHT22;6804;48.774;9.174;2023-05-19T13:04:50;15.60;99.90
13464;DHT22;6804;48.774;9.174;2023-05-19T13:07:19;15.70;99.90
13464;DHT22;6804;48.774;9.174;2023-05-19T13:09:47;15.90;99.90
13464;DHT22;6804;48.774;9.174;2023-05-19T13:12:18;16.00;99.90
13464;DHT22;6804;48.774;9.174;2023-05-19T13:14:46;16.00;99.90
13464;DHT22;6804;48.774;9.174;2023-05-19T13:17:15;16.10;99.90
13464;DHT22;6804;48.774;9.174;2023-05-19T13:19:49;16.10;99.90
13464;DHT22;6804;48.774;9.174;2023-05-19T13:22:16;16.30;99.90
13464;DHT22;6804;48.774;9.174;2023-05-19T13:24:44;16.30;99.90
13464;DHT22;6804;48.774;9.174;2023-05-19T13:27:13;16.40;99.90
13464;DHT22;6804;48.774;9.174;2023-05-19T13:29:40;16.40;99.90
13464;DHT22;6804;48.774;9.174;2023-05-19T13:32:08;16.40;99.90
13464;DHT22;6804;48.774;9.174;2023-05-19T13:34:39;16.50;99.90
13464;DHT22;6804;48.774;9.174;2023-05-19T13:37:09;16.50;99.90
13464;DHT22;6804;48.774;9.174;2023-05-19T13:39:37;16.60;99.90
13464;DHT22;6804;48.774;9.174;2023-05-19T13:42:09;16.60;99.90
13464;DHT22;6804;48.774;9.174;2023-05-19T13:44:37;16.70;99.90
13464;DHT22;6804;48.774;9.174;2023-05-19T13:47:06;16.60;99.70
13464;DHT22;6804;48.774;9.174;2023-05-19T13:49:34;16.60;99.90
13464;DHT22;6804;48.774;9.174;2023-05-19T13:52:04;16.60;99.90
13464;DHT22;6804;48.774;9.174;2023-05-19T13:54:34;16.50;99.90
13464;DHT22;6804;48.774;9.174;2023-05-19T13:57:02;16.40;99.90
13464;DHT22;6804;48.774;9.174;2023-05-19T13:59:31;16.50;99.90
13464;DHT22;6804;48.774;9.174;2023-05-19T14:02:02;16.50;99.90
13464;DHT22;6804;48.774;9.174;2023-05-19T14:04:30;16.50;99.90
13464;DHT22;6804;48.774;9.174;2023-05-19T14:07:01;16.40;99.90
13464;DHT22;6804;48.774;9.174;2023-05-19T14:09:29;16.50;99.90
13464;DHT22;6804;48.774;9.174;2023-05-19T14:12:01;16.50;99.90
13464;DHT22;6804;48.774;9.174;2023-05-19T14:14:30;16.50;99.90
13464;DHT22;6804;48.774;9.174;2023-05-19T14:16:59;16.40;99.90
13464;DHT22;6804;48.774;9.174;2023-05-19T14:19:27;16.30;99.90
13464;DHT22;6804;48.774;9.174;2023-05-19T14:21:56;16.30;99.90
13464;DHT22;6804;48.774;9.174;2023-05-19T14:24:23;16.20;99.90
13464;DHT22;6804;48.774;9.174;2023-05-19T14:26:51;16.10;99.90
13464;DHT22;6804;48.774;9.174;2023-05-19T14:29:23;16.20;99.90
13464;DHT22;6804;48.774;9.174;2023-05-19T14:31:51;16.30;99.90
13464;DHT22;6804;48.774;9.174;2023-05-19T14:34:22;16.50;99.90
13464;DHT22;6804;48.774;9.174;2023-05-19T14:36:52;16.60;99.90
13464;DHT22;6804;48.774;9.174;2023-05-19T14:39:20;16.50;99.90
13464;DHT22;6804;48.774;9.174;2023-05-19T14:41:51;16.40;99.90
13464;DHT22;6804;48.774;9.174;2023-05-19T14:44:23;16.40;99.90
13464;DHT22;6804;48.774;9.174;2023-05-19T14:46:51;16.50;99.90
13464;DHT22;6804;48.774;9.174;2023-05-19T14:49:19;16.60;99.90
13464;DHT22;6804;48.774;9.174;2023-05-19T14:51:47;16.60;99.90
13464;DHT22;6804;48.774;9.174;2023-05-19T14:54:18;16.70;99.90
13464;DHT22;6804;48.774;9.174;2023-05-19T14:56:49;16.70;99.90
13464;DHT22;6804;48.774;9.174;2023-05-19T14:59:21;16.70;99.90
13464;DHT22;6804;48.774;9.174;2023-05-19T15:01:52;16.60;99.90
13464;DHT22;6804;48.774;9.174;2023-05-19T15:04:22;16.60;99.90
13464;DHT22;6804;48.774;9.174;2023-05-19T15:06:50;16.60;99.90
13464;DHT22;6804;48.774;9.174;2023-05-19T15:09:21;16.60;99.90
13464;DHT22;6804;48.774;9.174;2023-05-19T15:11:49;16.60;99.90
13464;DHT22;6804;48.774;9.174;2023-05-19T15:14:17;16.60;99.90
13464;DHT22;6804;48.774;9.174;2023-05-19T15:16:50;16.50;99.90
13464;DHT22;6804;48.774;9.174;2023-05-19T15:19:19;16.20;99.90
13464;DHT22;6804;48.774;9.174;2023-05-19T15:21:47;16.10;99.90
13464;DHT22;6804;48.774;9.174;2023-05-19T15:24:15;16.10;99.90
13464;DHT22;6804;48.774;9.174;2023-05-19T15:26:43;16.00;99.90
13464;DHT22;6804;48.774;9.174;2023-05-19T15:29:12;16.00;99.90
13464;DHT22;6804;48.774;9.174;2023-05-19T15:31:40;16.00;99.90
13464;DHT22;6804;48.774;9.174;2023-05-19T15:34:13;16.10;99.90
13464;DHT22;6804;48.774;9.174;2023-05-19T15:36:44;16.20;99.90
13464;DHT22;6804;48.774;9.174;2023-05-19T15:39:12;16.30;99.90
13464;DHT22;6804;48.774;9.174;2023-05-19T15:41:43;16.30;99.90
13464;DHT22;6804;48.774;9.174;2023-05-19T15:44:14;16.40;99.90
13464;DHT22;6804;48.774;9.174;2023-05-19T15:46:42;16.50;99.90
13464;DHT22;6804;48.774;9.174;2023-05-19T15:49:12;16.50;99.90
13464;DHT22;6804;48.774;9.174;2023-05-19T15:51:41;16.60;99.90
13464;DHT22;6804;48.774;9.174;2023-05-19T15:54:09;16.70;99.90
13464;DHT22;6804;48.774;9.174;2023-05-19T15:56:37;16.80;99.90
13464;DHT22;6804;48.774;9.174;2023-05-19T15:59:05;16.80;99.90
13464;DHT22;6804;48.774;9.174;2023-05-19T16:01:33;16.80;99.90
13464;DHT22;6804;48.774;9.174;2023-05-19T16:04:04;16.80;99.90
13464;DHT22;6804;48.774;9.174;2023-05-19T16:06:36;16.80;99.90
13464;DHT22;6804;48.774;9.174;2023-05-19T16:09:04;16.70;99.90